Home > Products > Valid Products > TAF

000
FTUS46 KEKA 310924 AAA
TAFUKI
TAF AMD
KUKI 310924Z 3109/0106 15006KT P6SM -RA SCT007 BKN025 OVC035
     FM311200 VRB03KT 5SM -RA BR SCT007 BKN010 OVC025
      TEMPO 3112/3114 VRB03KT 4SM RA BR BKN007
     FM311700 15003KT P6SM -SHRA BKN015 OVC050=



000
FTUS46 KEKA 310922 AAA
TAFACV
TAF AMD
KACV 310922Z 3109/0106 29012KT 5SM -RA BR VCSH OVC004
      TEMPO 3109/3110 5SM -RA BR SCT007 OVC015
     FM311000 VRB05KT 6SM -RA BR SCT007 BKN015 OVC030
      TEMPO 3110/3114 4SM -RA OVC007
     FM311500 19007KT 6SM -SHRA BR SCT012 BKN025 OVC050=



000
FTUS46 KEKA 310921 AAA
TAFCEC
TAF AMD
KCEC 310921Z 3109/0106 30013KT P6SM -RA BKN008 OVC018
     FM311300 VRB05KT 4SM -DZ BR SCT007 OVC025
     FM311500 19006KT 6SM -SHRA BKN025 OVC050=



000
FTUS46 KEKA 310541
TAFCEC
TAF
KCEC 310541Z 3106/0106 17009KT P6SM -RA BKN007 BKN029 OVC035
      TEMPO 3106/3109 4SM -RA BR SCT007 OVC012
     FM310900 25010KT 3SM -RA BR SCT004 OVC012
     FM311300 VRB05KT 4SM -DZ BR SCT007 OVC025
     FM311500 19006KT 6SM -RA BKN025 OVC050=



000
FTUS46 KEKA 310541
TAFACV
TAF
KACV 310541Z 3106/0106 11005KT P6SM VCSH SCT015 BKN040 OVC100
      TEMPO 3108/3110 5SM -RA BR SCT007 OVC015
     FM311000 VRB05KT 6SM -RA BR SCT007 BKN015 OVC030
      TEMPO 3110/3114 4SM -RA OVC007
     FM311500 19007KT 6SM -RA BR SCT012 BKN025 OVC050=



000
FTUS46 KEKA 310541
TAFUKI
TAF
KUKI 310541Z 3106/0106 15006KT P6SM -RA SCT007 BKN025 OVC035
     FM311000 VRB03KT 5SM -RA BR SCT007 BKN010 OVC025
      TEMPO 3112/3114 VRB03KT 4SM -RA BR BKN007
     FM311700 15003KT P6SM -RA BKN015 OVC050=



000
FTUS46 KEKA 310430 CCB
TAFCEC
TAF COR
KCEC 310430Z 3104/3124 17009KT P6SM -RA SCT015 BKN035 OVC070
      TEMPO 3104/3106 SCT004 OVC015
     FM310600 25010KT 3SM -RA BR SCT004 OVC012
     FM311300 VRB05KT 4SM -DZ BR OVC007
     FM311500 19006KT 6SM -RA BKN025 OVC050=



000
FTUS46 KEKA 310347 AAB
TAFCEC
TAF AMD
KCEC 310347Z 3104/3124 17009KT P6SM -RA SCT015 BKN035 OVC070
     FM310600 25010KT 3SM -RA BR SCT004 OVC012
     FM311300 VRB05KT 4SM -DZ BR OVC007
     FM311500 19006KT 6SM -RA BKN025 OVC050=



000
FTUS46 KEKA 310347 AAB
TAFCEC
TAF AMD
KCEC 310347Z 3104/3124 17009KT P6SM -RA SCT015 BKN035 OVC070
     FM310600 25010KT 3SM -RA BR SCT004 OVC012
     FM311300 VRB05KT 4SM -DZ BR OVC007
     FM311500 19006KT 6SM -RA BKN025 OVC050=



000
FTUS46 KEKA 310112 CCA
TAFCEC
TAF COR
KCEC 310112Z 3101/3124 17009KT P6SM -RA BKN008 BKN015 OVC035
     FM310200 16009KT 6SM -RA BR SCT008 BKN025 OVC035
      TEMPO 3102/3106 5SM -RA BR SCT008 OVC011
     FM310600 25010KT 3SM -RA BR SCT004 OVC012
     FM311300 VRB05KT 4SM -DZ BR OVC007
     FM311500 19006KT 6SM -RA BKN025 OVC050=



000
FTUS46 KEKA 310059 AAA
TAFACV
TAF AMD
KACV 310059Z 3101/3124 16005KT P6SM VCSH SCT007 BKN015 OVC040
      TEMPO 3102/3106 5SM -RA BR BKN009 OVC025
     FM310600 VRB03KT 2SM -RA BR OVC006
     FM311000 18005KT 5SM -RA BR SCT009 OVC025
     FM311500 19007KT 6SM -RA BR SCT012 BKN025 OVC050=



000
FTUS46 KEKA 310051 AAA
TAFCEC
TAF AMD
KCEC 310051Z 3101/3124 17009KT P6SM -RA BKN008 BKN015 OVC035
      TEMPO 3102/3106 5SM -RA BR SCT008 OVC011
     FM310600 25010KT 3SM -RA BR SCT004 OVC012
     FM311300 VRB05KT 4SM -DZ BR OVC007
     FM311500 19006KT 6SM -RA BKN025 OVC050=



000
FTUS46 KEKA 302339
TAFCEC
TAF
KCEC 302339Z 3100/3124 17009KT P6SM -RA SCT009 BKN015 OVC035
      TEMPO 3103/3106 5SM -RA BR BKN009 OVC015
     FM310700 25010KT 3SM -RA BR SCT004 OVC012
     FM311300 VRB05KT 4SM -DZ BR OVC007
     FM311500 19006KT 6SM -RA BKN025 OVC050=



000
FTUS46 KEKA 302339
TAFACV
TAF
KACV 302339Z 3100/3124 16005KT P6SM VCSH SCT007 SCT012 OVC040
      TEMPO 3103/3106 5SM -RA BR SCT007 BKN012 OVC035
     FM310600 VRB03KT 2SM -RA BR OVC006
     FM311000 18005KT 5SM -RA BR SCT009 OVC025
     FM311500 19007KT 6SM -RA BR SCT012 BKN025 OVC050=



000
FTUS46 KEKA 302339
TAFUKI
TAF
KUKI 302339Z 3100/3124 22004KT P6SM SCT070 BKN120 OVC200
     FM311100 VRB03KT P6SM -RA OVC050=



000
FTUS46 KEKA 302257 AAD
TAFACV
TAF AMD
KACV 302257Z 3023/3118 16005KT P6SM VCSH SCT007 SCT012 OVC040
      TEMPO 3101/3104 5SM -RA BR SCT007 BKN012 OVC035
     FM310400 VRB03KT 4SM -RA BR BKN004 OVC009
      TEMPO 3106/3110 2SM -RA OVC007
     FM311000 18005KT 3SM -RA BR OVC009
     FM311500 VRB03KT P6SM OVC009=



000
FTUS46 KEKA 302257 AAC
TAFCEC
TAF AMD
KCEC 302257Z 3023/3118 17010KT P6SM -RA FEW011 BKN015 OVC025
     FM310000 17008KT 5SM -RA BR BKN011 OVC015
     FM310700 25010KT 3SM -RA BR SCT004 OVC015
     FM311300 VRB05KT 4SM BR OVC007=



000
FTUS46 KEKA 302211 AAC
TAFACV
TAF AMD
KACV 302211Z 3022/3118 VRB04KT P6SM VCSH BKN030 BKN040
      TEMPO 3100/3104 5SM -RA BR BKN007 OVC009
     FM310400 VRB03KT 4SM BR VCSH BKN004 OVC009
      TEMPO 3106/3110 2SM -RA OVC007
     FM311000 18005KT 3SM -RA BR OVC009
     FM311500 VRB03KT P6SM OVC009=



000
FTUS46 KEKA 302211 AAC
TAFACV
TAF AMD
KACV 302211Z 3022/3118 VRB04KT P6SM VCSH BKN030 BKN040
      TEMPO 3100/3104 5SM -RA BR BKN007 OVC009
     FM310400 VRB03KT 4SM BR VCSH BKN004 OVC009
      TEMPO 3106/3110 2SM -RA OVC007
     FM311000 18005KT 3SM -RA BR OVC009
     FM311500 VRB03KT P6SM OVC009=



000
FTUS46 KEKA 302105 CCD
TAFCEC
TAF COR
KCEC 302105Z 3020/3118 17008KT P6SM -SHRA OVC019
      TEMPO 3021/3024 2SM -RA BR OVC010
     FM310000 17008KT 5SM -SHRA BR OVC019
     FM310700 25010KT 3SM -RA BR SCT004 OVC015
     FM311300 VRB05KT 4SM BR OVC007=



000
FTUS46 KEKA 302104 CCC
TAFCEC
TAF COR
KCEC 302104Z 3020/3118 17008KT P6SM -SHRA OVC019
      TEMPO 3020/3023 2SM -RA BR OVC010
     FM302300 17012KT 5SM -RA BR OVC019
     FM310000 17008KT 4SM -SHRA BR OVC019
     FM310700 25010KT 3SM -RA BR SCT004 OVC015
     FM311300 VRB05KT 4SM BR OVC007=



000
FTUS46 KEKA 302101 AAB
TAFACV
TAF AMD
KACV 302101Z 3021/3118 VRB06KT P6SM VCSH BKN030 BKN035
      TEMPO 3021/3024 BKN007 OVC009
     FM310000 16005KT 4SM BR VCSH OVC019
      TEMPO 3104/3108 2SM -RA OVC007
     FM310800 18005KT 3SM -RA BR OVC015
     FM311500 VRB03KT P6SM OVC050=



000
FTUS46 KEKA 302009 AAB
TAFCEC
TAF AMD
KCEC 302009Z 3020/3118 17008KT P6SM VCSH OVC030
      TEMPO 3020/3023 2SM -RA BR BKN013 BKN025
     FM302300 17012KT 6SM -RA BR OVC019
     FM310000 17008KT 5SM -SHRA BR OVC019
     FM310700 25010KT 3SM -RA BR SCT004 OVC015
     FM311300 VRB05KT 4SM BR OVC007=



000
FTUS46 KEKA 301907 AAA
TAFCEC
TAF AMD
KCEC 301907Z 3019/3118 17008KT P6SM VCSH OVC020
      TEMPO 3019/3021 2SM -RA BR BKN002 OVC010
     FM302100 17012KT 6SM -RA BR OVC019
     FM310000 17008KT 5SM -SHRA BR OVC019
     FM310700 25010KT 3SM -RA BR SCT004 OVC015
     FM311300 VRB05KT 4SM BR OVC007=



000
FTUS46 KEKA 301905 AAA
TAFACV
TAF AMD
KACV 301905Z 3019/3118 VRB06KT P6SM BKN016
      TEMPO 3019/3021 SCT006 BKN010
     FM302100 18005KT P6SM VCSH BKN050
     FM310100 16005KT 4SM BR VCSH OVC019
      TEMPO 3103/3107 2SM -RA OVC007
     FM310700 18005KT 3SM -RA BR OVC015
     FM311500 VRB03KT P6SM OVC050=



000
FTUS46 KEKA 301831 CCB
TAFCEC
TAF COR
KCEC 301831Z 3018/3118 17008KT P6SM VCSH OVC014
      TEMPO 3018/3019 2SM -RA BR BKN004 OVC008
     FM301900 17012KT P6SM VCSH OVC019
     FM310000 17008KT 5SM -SHRA BR OVC019
     FM310700 25010KT 3SM -RA BR SCT004 OVC015
     FM311300 VRB05KT 4SM BR OVC007=



000
FTUS46 KEKA 301800 CCA
TAFCEC
TAF COR
KCEC 301800Z 3018/3118 17008KT P6SM VCSH OVC014
      TEMPO 3018/3019 OVC007
     FM301900 17012KT P6SM VCSH OVC019
     FM310000 17008KT 5SM -SHRA BR OVC019
     FM310700 25010KT 3SM -RA BR SCT004 OVC015
     FM311300 VRB05KT 4SM BR OVC007=



000
FTUS46 KEKA 301759 CCA
TAFACV
TAF COR
KACV 301759Z 3018/3118 VRB06KT P6SM BKN250
      TEMPO 3018/3019 BKN009 BKN013
     FM301900 20006KT P6SM VCSH BKN050
     FM310100 16005KT 4SM BR VCSH OVC019
      TEMPO 3103/3107 2SM -RA OVC007
     FM310700 18005KT 3SM -RA BR OVC015
     FM311500 VRB03KT P6SM OVC050=



000
FTUS46 KEKA 301729
TAFUKI
TAF
KUKI 301729Z 3018/3118 00000KT P6SM SCT250
     FM302100 18006KT P6SM BKN150
     FM310200 15004KT P6SM BKN050 OVC100
     FM311100 VRB03KT P6SM -RA OVC050=



000
FTUS46 KEKA 301729
TAFCEC
TAF
KCEC 301729Z 3018/3118 17008KT P6SM VCSH OVC014
      TEMPO 3018/3019 BKN008
     FM301900 17012KT P6SM VCSH OVC019
     FM310000 17008KT 5SM -SHRA BR OVC019
     FM310700 25010KT 3SM -RA BR SCT004 OVC015
     FM311300 VRB05KT 4SM BR OVC007=



000
FTUS46 KEKA 301729
TAFACV
TAF
KACV 301729Z 3018/3118 VRB06KT P6SM FEW250
      TEMPO 3018/3019 BKN017
     FM301900 20006KT P6SM VCSH BKN050
     FM310100 16005KT 4SM BR VCSH OVC019
      TEMPO 3103/3107 2SM -RA OVC007
     FM310700 18005KT 3SM -RA BR OVC015
     FM311500 VRB03KT P6SM OVC050=



000
FTUS46 KEKA 301729
TAFUKI
TAF
KUKI 301729Z 3018/3118 00000KT P6SM SCT250
     FM302100 18006KT P6SM BKN150
     FM310200 15004KT P6SM BKN050 OVC100
     FM311100 VRB03KT P6SM -RA OVC050=



000
FTUS46 KEKA 301729
TAFACV
TAF
KACV 301729Z 3018/3118 VRB06KT P6SM FEW250
      TEMPO 3018/3019 BKN017
     FM301900 20006KT P6SM VCSH BKN050
     FM310100 16005KT 4SM BR VCSH OVC019
      TEMPO 3103/3107 2SM -RA OVC007
     FM310700 18005KT 3SM -RA BR OVC015
     FM311500 VRB03KT P6SM OVC050=



000
FTUS46 KEKA 301729
TAFCEC
TAF
KCEC 301729Z 3018/3118 17008KT P6SM VCSH OVC014
      TEMPO 3018/3019 BKN008
     FM301900 17012KT P6SM VCSH OVC019
     FM310000 17008KT 5SM -SHRA BR OVC019
     FM310700 25010KT 3SM -RA BR SCT004 OVC015
     FM311300 VRB05KT 4SM BR OVC007=



000
FTUS46 KEKA 301639 CCB
TAFACV
TAF COR
KACV 301639Z 3016/3112 VRB06KT P6SM FEW250
     FM302000 20007KT P6SM VCSH BKN050
     FM310300 14005KT 6SM -RA OVC030
     FM310800 27008KT 3SM RA BR SCT004 OVC015=



000
FTUS46 KEKA 301639 CCB
TAFACV
TAF COR
KACV 301639Z 3016/3112 VRB06KT P6SM FEW250
     FM302000 20007KT P6SM VCSH BKN050
     FM310300 14005KT 6SM -RA OVC030
     FM310800 27008KT 3SM RA BR SCT004 OVC015=



000
FTUS46 KEKA 301555 CCA
TAFACV
TAF COR
KACV 301555Z 3016/3112 VRB03KT P6SM SCT015
     FM301700 VRB03KT P6SM OVC150
     FM302000 20007KT P6SM VCSH SCT025 OVC060
     FM310300 14005KT 6SM -RA OVC030
     FM310800 27008KT 3SM RA BR SCT004 OVC015=



000
FTUS46 KEKA 301532 AAB
TAFCEC
TAF AMD
KCEC 301532Z 3016/3112 16010KT P6SM VCSH SCT025 BKN035
      TEMPO 3016/3019 4SM BR BKN015
     FM301900 17012G17KT P6SM -SHRA BKN025 OVC060
     FM310100 18010G17KT 5SM -RA BR OVC025
     FM310700 25010KT 2SM -RA BR SCT004 OVC015=



000
FTUS46 KEKA 301531 AAC
TAFACV
TAF AMD
KACV 301531Z 3016/3112 VRB03KT P6SM BKN006
     FM301700 VRB03KT P6SM OVC150
     FM302000 20007KT P6SM VCSH SCT025 OVC060
     FM310300 14005KT 6SM -RA OVC030
     FM310800 27008KT 3SM RA BR SCT004 OVC015=



000
FTUS46 KEKA 301316 AAB
TAFACV
TAF AMD
KACV 301316Z 3013/3112 15003KT 4SM BR BKN005
      TEMPO 3013/3015 30003KT 1/4SM FG BKN001
     FM301500 10003KT 6SM BR SCT002 BKN150
     FM301700 VRB03KT P6SM OVC150
     FM302000 20007KT P6SM VCSH SCT025 OVC060
     FM310300 14005KT 6SM -RA OVC030
     FM310800 27008KT 3SM RA BR SCT004 OVC015=



000
FTUS46 KEKA 301255 AAA
TAFCEC
TAF AMD
KCEC 301255Z 3013/3112 16010KT P6SM VCSH SCT025 BKN035
      TEMPO 3013/3015 BKN025
     FM301900 17012G17KT P6SM -SHRA BKN025 OVC060
     FM310100 18010G17KT 5SM -RA BR OVC025
     FM310700 25010KT 2SM -RA BR SCT004 OVC015=



000
FTUS46 KEKA 301252 AAA
TAFACV
TAF AMD
KACV 301252Z 3013/3112 15003KT 1SM BR BKN002
      TEMPO 3013/3015 30003KT 1/4SM FG BKN001
     FM301500 10003KT 4SM BR SCT002 BKN150
     FM301700 VRB03KT P6SM OVC150
     FM302000 20007KT P6SM VCSH SCT025 OVC060
     FM310300 14005KT 6SM -RA OVC030
     FM310800 27008KT 3SM RA BR SCT004 OVC015=



000
FTUS46 KEKA 301217 CCA
TAFCEC
TAF COR
KCEC 301217Z 3012/3112 16007KT P6SM VCSH SCT025 BKN035 OVC150
     FM301900 17010G15KT P6SM -SHRA BKN030 OVC060
     FM310100 18010G17KT 5SM -RA BR OVC025
     FM310700 25010KT 2SM -RA BR SCT004 OVC015=



000
FTUS46 KEKA 301120
TAFUKI
TAF
KUKI 301120Z 3012/3112 00000KT P6SM SCT250
     FM302100 14005KT P6SM BKN150
     FM310700 15005KT P6SM OVC060
      TEMPO 3108/3110 P6SM -SHRA OVC035
     FM311000 19005KT P6SM -RA OVC030=



000
FTUS46 KEKA 301120
TAFCEC
TAF
KCEC 301120Z 3012/3112 16007KT P6SM VCSH BKN040 OVC150
     FM301900 17010G15KT P6SM -SHRA BKN030 OVC060
     FM310100 18010G17KT 5SM -RA BR OVC025
     FM310700 25010KT 2SM -RA BR SCT004 OVC015=



000
FTUS46 KEKA 301120
TAFACV
TAF
KACV 301120Z 3012/3112 13003KT 6SM BR OVC150
      TEMPO 3012/3015 30003KT 3/4SM BR BKN002
     FM302000 20007KT P6SM VCSH SCT025 OVC060
     FM310300 14005KT 6SM -RA OVC030
     FM310800 27008KT 3SM RA BR SCT004 OVC015=



000
FTUS46 KEKA 300534
TAFCEC
TAF
KCEC 300534Z 3006/3106 VRB03KT 6SM BR SCT060 SCT100 BKN250
      TEMPO 3007/3010 3SM BR FEW009 SCT060 SCT100
     FM301000 15005KT 5SM BR SCT060 BKN100 OVC250
     FM301800 16010KT P6SM VCSH SCT025 OVC060
     FM302100 15010KT 5SM -RA BR SCT007 OVC025=



000
FTUS46 KEKA 300534
TAFUKI
TAF
KUKI 300534Z 3006/3106 VRB04KT P6SM SCT250
     FM302100 20006KT P6SM SCT100 BKN250=



000
FTUS46 KEKA 300534
TAFACV
TAF
KACV 300534Z 3006/3106 10003KT 6SM BR FEW060 SCT090 BKN120
      TEMPO 3008/3012 5SM BR FEW006 SCT090 SCT250
     FM301200 14003KT 2SM BR BKN006
     FM301600 16006KT 6SM BR SCT015 SCT060 OVC090
     FM302100 18009KT P6SM SCT015 OVC060
     FM302300 18009KT 6SM -RA BR BKN025 OVC050=



000
FTUS46 KEKA 300331 AAA
TAFACV
TAF AMD
KACV 300331Z 3004/3024 10003KT 6SM BR FEW060 SCT090 BKN120
      TEMPO 3004/3006 4SM BR
     FM300900 VRB03KT 2SM BR OVC009
     FM301000 VRB03KT 2SM BR OVC004=



000
FTUS46 KEKA 300329 AAB
TAFCEC
TAF AMD
KCEC 300329Z 3003/3024 31005KT 1SM -RA BR SCT005 BKN050 OVC080
      TEMPO 3004/3006 6SM -RA
     FM300900 16003KT 2SM BR OVC003=



000
FTUS46 KEKA 300129 AAA
TAFCEC
TAF AMD
KCEC 300129Z 3001/3024 18006KT 2SM -RA FEW008 SCT070 OVC090
     FM300200 15004KT 6SM -RA BR SCT006 SCT025 BKN050
      TEMPO 3002/3004 3SM -RA BKN008
     FM300400 15007KT 3SM BR BKN007 OVC025
     FM300700 16003KT 2SM BR OVC003=



000
FTUS46 KEKA 300129 AAA
TAFCEC
TAF AMD
KCEC 300129Z 3001/3024 18006KT 2SM -RA FEW008 SCT070 OVC090
     FM300200 15004KT 6SM -RA BR SCT006 SCT025 BKN050
      TEMPO 3002/3004 3SM -RA BKN008
     FM300400 15007KT 3SM BR BKN007 OVC025
     FM300700 16003KT 2SM BR OVC003=



000
FTUS46 KEKA 292332
TAFCEC
TAF
KCEC 292332Z 3000/3024 18006KT 6SM -RA FEW030 SCT070 OVC090
     FM300200 15004KT 6SM BR SCT006 SCT025 BKN050
     FM300400 15007KT 3SM BR BKN007 OVC025
     FM300700 16003KT 2SM BR OVC003=



000
FTUS46 KEKA 292332
TAFACV
TAF
KACV 292332Z 3000/3024 24004KT P6SM VCSH FEW060 SCT090 BKN120
     FM300300 12003KT P6SM SCT060 OVC090
     FM300500 VRB03KT 6SM BR FEW009 SCT015 OVC050
     FM300600 VRB03KT 2SM BR OVC009
     FM301000 VRB03KT 2SM BR OVC004=



000
FTUS46 KEKA 292332
TAFUKI
TAF
KUKI 292332Z 3000/3024 VRB03KT P6SM SCT250=



000
FTUS46 KEKA 292209 AAC
TAFACV
TAF AMD
KACV 292209Z 2922/3018 VRB06KT P6SM VCSH SCT100
      TEMPO 2922/2924 5SM HZ
     FM300000 VRB03KT P6SM BKN100
     FM300100 00000KT P6SM BKN050
     FM300400 00000KT 5SM BR OVC015
     FM300600 VRB03KT 2SM BR OVC009
     FM301000 VRB03KT 2SM BR OVC004=



000
FTUS46 KEKA 292119 AAC
TAFCEC
TAF AMD
KCEC 292119Z 2921/3018 VRB05KT P6SM VCSH OVC100
      TEMPO 2921/2924 -RA SCT035
     FM300000 VRB05KT P6SM OVC100
     FM300300 15004KT 3SM BR OVC009
     FM300700 16003KT 2SM BR OVC003=



000
FTUS46 KEKA 292116 AAB
TAFACV
TAF AMD
KACV 292116Z 2921/3018 VRB06KT P6SM VCSH BKN100
     FM292200 VRB03KT P6SM BKN100
     FM300100 00000KT P6SM BKN050
     FM300400 00000KT 5SM BR OVC015
     FM300600 VRB03KT 2SM BR OVC009
     FM301000 VRB03KT 2SM BR OVC004=



000
FTUS46 KEKA 292003 CCA
TAFCEC
TAF COR
KCEC 292003Z 2920/3018 VRB04KT P6SM VCSH OVC100
      TEMPO 2920/2921 -RA SCT025
     FM292100 VRB05KT P6SM OVC050
     FM300000 VRB02KT 5SM BR OVC009
     FM300300 15004KT 3SM BR OVC009
     FM300700 16003KT 2SM BR OVC003=



000
FTUS46 KEKA 292002 AAB
TAFCEC
TAF AMD
KCEC 292002Z 2920/3018 VRB04KT P6SM VCSH OVC100
      TEMPO 2920/2921 5SM -RA BR SCT025
     FM292100 VRB05KT P6SM OVC050
     FM300000 VRB02KT 5SM BR OVC009
     FM300300 15004KT 3SM BR OVC009
     FM300700 16003KT 2SM BR OVC003=



000
FTUS46 KEKA 291912 AAA
TAFACV
TAF AMD
KACV 291912Z 2919/3018 VRB06KT P6SM VCSH OVC100
     FM292200 VRB03KT P6SM OVC100
     FM300000 00000KT P6SM BKN050
     FM300300 00000KT 5SM BR OVC015
     FM300500 VRB03KT 2SM BR OVC009
     FM301000 VRB03KT 2SM BR OVC004=



000
FTUS46 KEKA 291911 AAA
TAFCEC
TAF AMD
KCEC 291911Z 2919/3018 VRB04KT 6SM BR VCSH OVC025
      TEMPO 2919/2920 5SM -RA BR SCT012
     FM292000 VRB05KT P6SM OVC025
     FM300000 VRB02KT 5SM BR OVC009
     FM300300 15004KT 3SM BR OVC009
     FM300700 16003KT 2SM BR OVC003=



000
FTUS46 KEKA 291801 CCA
TAFACV
TAF COR
KACV 291801Z 2918/3018 VRB04KT P6SM VCSH OVC090
      TEMPO 2918/2920 2SM BR SCT003
     FM292000 VRB03KT P6SM OVC050
     FM300000 00000KT P6SM BKN050
     FM300300 00000KT 5SM BR OVC015
     FM300500 VRB03KT 2SM BR OVC009
     FM301000 VRB03KT 2SM BR OVC004=



000
FTUS46 KEKA 291730
TAFUKI
TAF
KUKI 291730Z 2918/3018 00000KT P6SM SCT200
     FM292200 VRB03KT P6SM SCT200
     FM300100 00000KT P6SM SCT200=



000
FTUS46 KEKA 291730
TAFCEC
TAF
KCEC 291730Z 2918/3018 15004KT 6SM BR VCSH OVC009
      TEMPO 2918/2920 4SM -RA BR OVC002
     FM292000 16005KT P6SM OVC015
     FM300000 VRB02KT 5SM BR OVC009
     FM300300 15004KT 3SM BR OVC009
     FM300700 16003KT 2SM BR OVC003=



000
FTUS46 KEKA 291730
TAFACV
TAF
KACV 291730Z 2918/3018 VRB04KT P6SM VCSH OVC100
     FM291900 VRB05KT P6SM VCSH BKN050 OVC100
     FM292000 VRB03KT P6SM OVC050
     FM300000 00000KT P6SM BKN050
     FM300300 00000KT 5SM BR OVC015
     FM300500 VRB03KT 2SM BR OVC009
     FM301000 VRB03KT 2SM BR OVC004=



000
FTUS46 KEKA 291702 AAB
TAFCEC
TAF AMD
KCEC 291702Z 2917/3012 16004KT 4SM BR OVC005
      TEMPO 2917/2918 2SM -RA BR OVC002
     FM291800 16006KT P6SM -SHRA BKN025 OVC050
     FM292100 16005KT P6SM BKN050
     FM300300 15007KT 3SM BR OVC015=



000
FTUS46 KEKA 291639 AAC
TAFACV
TAF AMD
KACV 291639Z 2917/3012 VRB04KT P6SM VCSH OVC100
     FM291700 VRB06KT P6SM VCSH BKN050 OVC100
     FM292000 VRB03KT P6SM OVC050
     FM300300 13003KT P6SM BKN015=



000
FTUS46 KEKA 291521 CCD
TAFACV
TAF COR
KACV 291521Z 2915/3012 VRB04KT 6SM BR VCSH OVC025
      TEMPO 2915/2917 4SM -RA BR SCT015
     FM291700 VRB06KT P6SM VCSH SCT025 BKN035 OVC050
     FM292000 VRB03KT P6SM OVC050
     FM300300 13003KT P6SM BKN015=



000
FTUS46 KEKA 291520 AAA
TAFCEC
TAF AMD
KCEC 291520Z 2915/3012 18004KT 4SM BR OVC005
      TEMPO 2915/2917 2SM -RA BR OVC003
     FM291700 16006KT P6SM -SHRA BKN025 OVC050
     FM291900 18006KT P6SM BKN050
     FM300300 15007KT 3SM BR OVC015=



000
FTUS46 KEKA 291517 CCC
TAFACV
TAF COR
KACV 291517Z 2915/3012 VRB04KT 6SM BR VCSH OVC025
      TEMPO 2915/2917 4SM -RA BR SCT015
     FM291700 VRB06KT P6SM -SHRA SCT015 BKN035 OVC050
     FM292000 VRB03KT P6SM OVC050
     FM300300 13003KT P6SM BKN015=



000
FTUS46 KEKA 291506 CCB
TAFACV
TAF COR
KACV 291506Z 2915/3012 VRB04KT 5SM BR OVC015
      TEMPO 2915/2917 2SM BR SCT005
     FM291700 VRB06KT P6SM -SHRA SCT015 BKN035 OVC050
     FM292000 VRB03KT P6SM OVC050
     FM300300 13003KT P6SM BKN015=



000
FTUS46 KEKA 291505 AAB
TAFACV
TAF AMD
KACV 291505Z 2915/3012 VRB04KT 5SM BR OVC015
      TEMPO 2915/2917 4SM BR SCT005
     FM291700 VRB06KT P6SM -SHRA SCT015 BKN035 OVC050
     FM292000 VRB03KT P6SM OVC050
     FM300300 13003KT P6SM BKN015=



000
FTUS46 KEKA 291329 AAA
TAFACV
TAF AMD
KACV 291329Z 2913/3012 VRB03KT 5SM BR OVC015
      TEMPO 2913/2915 3/4SM BR BKN002
     FM291500 22003KT P6SM -SHRA SCT015 BKN035 OVC060
     FM292000 VRB03KT P6SM OVC050
     FM300300 13003KT P6SM BKN015=



000
FTUS46 KEKA 291231 CCA
TAFACV
TAF COR
KACV 291231Z 2912/3012 VRB03KT 5SM BR OVC015
     FM291500 22003KT P6SM -SHRA SCT015 BKN035 OVC060
     FM292000 VRB03KT P6SM OVC050
     FM300300 13003KT P6SM BKN015=



000
FTUS46 KEKA 291228 CCA
TAFCEC
TAF COR
KCEC 291228Z 2912/3012 00000KT 4SM BR OVC003
     FM291530 16004KT P6SM -SHRA BKN025 OVC050
     FM291900 18006KT P6SM BKN050
     FM300300 15007KT 3SM BR OVC015=



000
FTUS46 KEKA 291147
TAFACV
TAF
KACV 291147Z 2912/3012 04003KT P6SM OVC015
     FM291500 22003KT P6SM -SHRA SCT015 OVC060
     FM292000 VRB03KT P6SM OVC050
     FM300300 13003KT P6SM BKN015=



000
FTUS46 KEKA 291147
TAFUKI
TAF
KUKI 291147Z 2912/3012 00000KT P6SM SCT200=



000
FTUS46 KEKA 291147
TAFCEC
TAF
KCEC 291147Z 2912/3012 00000KT 4SM BR OVC003
     FM291630 16004KT P6SM -SHRA BKN025 OVC050
     FM291900 16006KT P6SM BKN050
     FM300300 00000KT P6SM OVC015=



000
FTUS46 KEKA 290550 CCA
TAFCEC
TAF COR
KCEC 290550Z 2906/3006 16009KT 3SM -RA BR SCT005 BKN015 OVC025
      TEMPO 2906/2908 6SM BR SCT005 OVC012
     FM290800 17009KT 6SM BR SCT005 OVC012
      TEMPO 2909/2912 BKN005 OVC014
     FM291200 VRB03KT 2SM -DZ BR OVC005
     FM291630 16004KT P6SM SCT025
     FM291900 16006KT P6SM BKN050=



000
FTUS46 KEKA 290547
TAFUKI
TAF
KUKI 290547Z 2906/3006 VRB03KT P6SM FEW250=



000
FTUS46 KEKA 290547
TAFUKI
TAF

:=



000
FTUS46 KEKA 290547
TAFCEC
TAF
KCEC 290547Z 2906/3006 16009KT 3SM -RA BR SCT005 BKN015 OVC025
      TEMPO 2909/2912 BKN005 OVC014
     FM291200 VRB03KT 2SM -DZ BR OVC005
     FM291630 16004KT P6SM SCT025
     FM291900 16006KT P6SM BKN050=



000
FTUS46 KEKA 290547
TAFACV
TAF
KACV 290547Z 2906/3006 14007KT 6SM -RA BR SCT005 BKN015 OVC025
     FM291200 00000KT 1SM BR BKN005 OVC015
     FM291400 VRB03KT 3SM BR SCT005 OVC015
     FM291700 22003KT P6SM BKN050=



000
FTUS46 KEKA 290137 AAB
TAFACV
TAF AMD
KACV 290137Z 2902/2924 15007KT 2SM -RA BR FEW008 SCT015 OVC035
      TEMPO 2902/2904 4SM -RA BR SCT008 BKN015 OVC035
     FM290400 14003KT 6SM BR SCT008 OVC025
     FM290600 00000KT 3SM BR SCT004 OVC015
     FM291200 VRB03KT 6SM BR OVC007
     FM291700 22003KT P6SM BKN050=



000
FTUS46 KEKA 290137 AAB
TAFACV
TAF AMD
KACV 290137Z 2902/2924 15007KT 2SM -RA BR FEW008 SCT015 OVC035
      TEMPO 2902/2904 4SM -RA BR SCT008 BKN015 OVC035
     FM290400 14003KT 6SM BR SCT008 OVC025
     FM290600 00000KT 3SM BR SCT004 OVC015
     FM291200 VRB03KT 6SM BR OVC007
     FM291700 22003KT P6SM BKN050=



000
FTUS46 KEKA 290101 AAA
TAFUKI
TAF AMD
KUKI 290101Z 2901/2924 31005KT P6SM SCT150
     FM290200 00000KT P6SM SCT100
     FM291200 00000KT P6SM SKC=



000
FTUS46 KEKA 290101 AAA
TAFCEC
TAF AMD
KCEC 290101Z 2901/2924 15012G17KT 5SM -RA BR SCT016 OVC025
     FM290300 16009KT 3SM -DZ BR SCT008 OVC015
     FM290500 16005KT 3SM -DZ BR BKN007 OVC025
     FM291200 VRB03KT 4SM BR OVC007
     FM291630 16004KT P6SM SCT025
     FM291900 16006KT P6SM BKN050=



000
FTUS46 KEKA 290101 AAA
TAFACV
TAF AMD
KACV 290101Z 2901/2924 15004KT P6SM VCSH SCT008 OVC035
     FM290300 14003KT P6SM SCT008 OVC025
     FM290600 00000KT 3SM BR SCT004 OVC015
     FM291200 VRB03KT 6SM BR OVC007
     FM291700 22003KT P6SM BKN050=



000
FTUS46 KEKA 282326
TAFCEC
TAF
KCEC 282326Z 2900/2924 17008KT 5SM -DZ BR SCT015 BKN025 OVC035
     FM290300 16010KT 3SM -DZ BR SCT008 OVC015
     FM290500 16005KT 3SM -DZ BR BKN007 OVC025
     FM291200 VRB03KT 4SM BR OVC007
     FM291630 16004KT P6SM SCT025
     FM291900 16006KT P6SM BKN050=



000
FTUS46 KEKA 282326
TAFUKI
TAF
KUKI 282326Z 2900/2924 31005KT P6SM SCT150
     FM290200 00000KT P6SM SCT100
     FM291200 00000KT P6SM SKC=



000
FTUS46 KEKA 282326
TAFACV
TAF
KACV 282326Z 2900/2924 15004KT P6SM VCSH SCT008 OVC035
     FM290300 14003KT P6SM SCT008 OVC025
     FM290600 00000KT 3SM BR SCT004 OVC015
     FM291200 VRB03KT 6SM BR OVC007
     FM291700 22003KT P6SM BKN050=



000
FTUS46 KEKA 282238 AAB
TAFCEC
TAF AMD
KCEC 282238Z 2823/2918 16015KT P6SM -DZ VCSH BKN025 OVC030
     FM282300 16015KT P6SM -DZ VCSH BKN025 OVC035
     FM290000 17008KT 5SM -DZ BR SCT015 BKN025 OVC035
     FM290300 16010KT 3SM -DZ BR SCT008 OVC015
     FM290500 16005KT 3SM -DZ BR BKN007 OVC025
     FM291200 VRB03KT 4SM BR OVC007=



000
FTUS46 KEKA 282235 AAA
TAFCEC
TAF AMD
KCEC 282235Z 2823/2918 16015KT P6SM VCSH BKN025 OVC030
     FM282300 16015KT P6SM VCSH BKN025 OVC035
     FM290000 17008KT 5SM -DZ BR SCT015 BKN025 OVC035
     FM290300 16010KT 3SM -DZ BR SCT008 OVC015
     FM290500 16005KT 3SM -DZ BR BKN007 OVC025
     FM291200 VRB03KT 4SM BR OVC007=



000
FTUS46 KEKA 282104 AAA
TAFACV
TAF AMD
KACV 282104Z 2821/2918 VRB06KT P6SM VCSH OVC050
     FM282200 16006KT P6SM VCSH OVC040
     FM290000 15004KT P6SM VCSH SCT008 OVC035
     FM290300 14003KT P6SM SCT008 OVC025
     FM290600 00000KT 3SM BR SCT004 OVC015
     FM291200 VRB03KT 6SM BR OVC007=



000
FTUS46 KEKA 282101 CCA
TAFCEC
TAF COR
KCEC 282101Z 2818/2918 16015KT P6SM VCSH OVC040
     FM282200 16015KT P6SM VCSH SCT015 OVC035
     FM290000 17008KT 5SM -DZ BR SCT015 BKN025 OVC035
     FM290300 16010KT 3SM -DZ BR SCT008 OVC015
     FM290500 16005KT 3SM -DZ BR BKN007 OVC025
     FM291200 VRB03KT 4SM BR OVC007=



000
FTUS46 KEKA 281841 CCA
TAFACV
TAF COR
KACV 281841Z 2818/2918 12004KT P6SM -DZ BKN050 OVC090
     FM282100 17006KT P6SM -DZ OVC040
     FM290000 15004KT P6SM -DZ SCT008 OVC035
     FM290300 14003KT P6SM -DZ SCT008 OVC025
     FM290600 00000KT 3SM -DZ BR SCT004 OVC015
     FM291200 VRB03KT 6SM BR OVC007=



000
FTUS46 KEKA 281731
TAFCEC
TAF
KCEC 281731Z 2818/2918 16010KT P6SM VCSH OVC060
     FM282100 17015KT P6SM -RA SCT015 OVC035
     FM290000 17008KT 5SM -DZ BR SCT015 BKN025 OVC035
     FM290300 16010KT 3SM -DZ BR SCT008 OVC015
     FM290500 16005KT 3SM -DZ BR BKN007 OVC025
     FM291200 VRB03KT 4SM BR OVC007=



000
FTUS46 KEKA 281731
TAFACV
TAF
KACV 281731Z 2818/2918 12004KT P6SM SCT060 OVC090
     FM282100 17006KT P6SM OVC040
     FM290000 15004KT P6SM -DZ SCT008 OVC035
     FM290300 14003KT P6SM -DZ SCT008 OVC025
     FM290600 00000KT 3SM -DZ BR SCT004 OVC015
     FM291200 VRB03KT 6SM BR OVC007=



000
FTUS46 KEKA 281731
TAFUKI
TAF
KUKI 281731Z 2818/2918 00000KT P6SM SCT250
     FM282100 31005KT P6SM SCT150
     FM290200 00000KT P6SM SCT100
     FM291200 00000KT P6SM SKC=



000
FTUS46 KEKA 281135
TAFCEC
TAF
KCEC 281135Z 2812/2912 14005KT P6SM OVC080
     FM281500 16010KT P6SM OVC050
     FM281800 17014G18KT P6SM -SHRA SCT025 OVC035
     FM282100 18012KT 5SM -RA BR SCT015 BKN025 OVC035
     FM290000 16010KT 3SM RA SCT008 OVC015
     FM290500 15003KT 3SM -SHRA BR BKN007 OVC025=



000
FTUS46 KEKA 281135
TAFUKI
TAF
KUKI 281135Z 2812/2912 00000KT P6SM SCT250
     FM282100 31005KT P6SM SCT150
     FM290300 00000KT P6SM SCT100=



000
FTUS46 KEKA 281135
TAFACV
TAF
KACV 281135Z 2812/2912 12004KT P6SM BKN100
     FM281600 15005KT P6SM OVC080
     FM282100 21007KT P6SM OVC040
     FM290000 18006KT 6SM -RA SCT008 OVC025
     FM290600 00000KT 3SM -SHRA BR SCT004 OVC015=



    US Dept of Commerce
    National Oceanic and Atmospheric Administration
    National Weather Service
    1325 East West Highway
    Silver Spring, MD 20910
    Page Author: NWS Internet Services Team
Disclaimer
Information Quality
Credits
Glossary
Privacy Policy
Freedom of Information Act (FOIA)
About Us
Career Opportunities